Time;durP1;ratioP1;P1;durP2;ratioP2;P2;SDS_P1;SDS_P2;PMS_P1;PMS_P2;Temp;Humidity;BMP_temperature;BMP_pressure;BME280_temperature;BME280_humidity;BME280_pressure;Samples;Min_cycle;Max_cycle;Signal;HPM_P1;HPM_P2
2023/04/24 00:02:59;;;;;;;;;;;21.70;36.60;;;;;;8395010;28;19931;-43
2023/04/24 00:06:59;;;;;;;;;;;21.80;36.60;;;;;;8395044;28;19916;-43
2023/04/24 00:11:00;;;;;;;;;;;21.70;36.60;;;;;;8395041;28;20458;-43
2023/04/24 00:15:01;;;;;;;;;;;21.80;36.70;;;;;;8394534;28;19920;-43
2023/04/24 00:19:01;;;;;;;;;;;21.70;36.70;;;;;;8395077;28;19995;-44
2023/04/24 00:23:02;;;;;;;;;;;21.70;36.70;;;;;;8395094;28;19947;-43
2023/04/24 00:27:03;;;;;;;;;;;21.80;36.70;;;;;;8394665;28;19916;-43
2023/04/24 00:31:03;;;;;;;;;;;21.70;36.70;;;;;;8394845;28;20031;-43
2023/04/24 00:35:05;;;;;;;;;;;21.70;36.80;;;;;;8394620;28;20369;-43
2023/04/24 00:39:08;;;;;;;;;;;21.70;36.80;;;;;;8394614;28;19917;-43
2023/04/24 00:43:08;;;;;;;;;;;21.70;36.80;;;;;;8395462;28;19925;-43
2023/04/24 00:47:11;;;;;;;;;;;21.60;36.80;;;;;;8401657;28;19973;-43
2023/04/24 00:51:11;;;;;;;;;;;21.60;36.80;;;;;;8401271;28;20030;-44
2023/04/24 00:55:12;;;;;;;;;;;21.60;36.80;;;;;;8401524;28;19987;-42
2023/04/24 00:59:13;;;;;;;;;;;21.60;36.80;;;;;;8401804;28;19913;-43
2023/04/24 01:03:13;;;;;;;;;;;21.60;36.90;;;;;;8400925;28;20382;-45
2023/04/24 01:07:14;;;;;;;;;;;21.60;36.90;;;;;;8401310;28;20133;-44
2023/04/24 01:11:14;;;;;;;;;;;21.60;36.90;;;;;;8400139;28;19948;-45
2023/04/24 01:15:15;;;;;;;;;;;21.60;36.90;;;;;;8400378;28;19939;-44
2023/04/24 01:19:16;;;;;;;;;;;21.60;36.90;;;;;;8400838;28;19955;-44
2023/04/24 01:23:16;;;;;;;;;;;21.60;36.90;;;;;;8400544;28;19967;-44
2023/04/24 01:27:17;;;;;;;;;;;21.60;36.90;;;;;;8399865;28;20369;-43
2023/04/24 01:31:17;;;;;;;;;;;21.60;36.90;;;;;;8400015;28;19916;-44
2023/04/24 01:35:18;;;;;;;;;;;21.60;37.00;;;;;;8400125;28;19919;-44
2023/04/24 01:39:20;;;;;;;;;;;21.60;37.10;;;;;;8400187;28;19921;-44
2023/04/24 01:43:21;;;;;;;;;;;21.50;37.00;;;;;;8399461;28;19925;-45
2023/04/24 01:47:22;;;;;;;;;;;21.50;37.00;;;;;;8400169;28;20342;-43
2023/04/24 01:51:22;;;;;;;;;;;21.50;37.00;;;;;;8398897;28;19917;-44
2023/04/24 01:55:23;;;;;;;;;;;21.50;37.10;;;;;;8398006;28;19916;-43
2023/04/24 01:59:25;;;;;;;;;;;21.50;37.00;;;;;;8399862;28;20370;-43
2023/04/24 02:03:26;;;;;;;;;;;21.50;37.10;;;;;;8399083;28;20278;-44
2023/04/24 02:07:26;;;;;;;;;;;21.50;37.00;;;;;;8399361;28;19949;-44
2023/04/24 02:11:27;;;;;;;;;;;21.50;37.10;;;;;;8399440;28;20022;-44
2023/04/24 02:15:27;;;;;;;;;;;21.50;37.10;;;;;;8398817;28;19964;-44
2023/04/24 02:19:27;;;;;;;;;;;21.50;37.10;;;;;;8399454;28;19920;-45
2023/04/24 02:23:28;;;;;;;;;;;21.40;37.00;;;;;;8398839;28;19990;-44
2023/04/24 02:27:28;;;;;;;;;;;21.40;37.00;;;;;;8398388;28;20370;-43
2023/04/24 02:31:29;;;;;;;;;;;21.40;37.00;;;;;;8398615;28;20365;-44
2023/04/24 02:35:29;;;;;;;;;;;21.40;37.00;;;;;;8398570;28;19994;-44
2023/04/24 02:39:30;;;;;;;;;;;21.40;37.00;;;;;;8398589;28;19966;-44
2023/04/24 02:43:30;;;;;;;;;;;21.40;37.00;;;;;;8398337;28;20399;-44
2023/04/24 02:47:31;;;;;;;;;;;21.40;37.60;;;;;;8398151;28;20374;-42
2023/04/24 02:51:31;;;;;;;;;;;21.40;37.10;;;;;;8397594;28;19916;-43
2023/04/24 02:55:32;;;;;;;;;;;21.30;37.00;;;;;;8397871;28;19923;-45
2023/04/24 02:59:33;;;;;;;;;;;21.40;37.10;;;;;;8398538;28;19962;-43
2023/04/24 03:03:33;;;;;;;;;;;21.30;37.00;;;;;;8397088;28;19944;-44
2023/04/24 03:07:34;;;;;;;;;;;21.30;37.00;;;;;;8397234;28;20390;-44
2023/04/24 03:11:34;;;;;;;;;;;21.30;37.00;;;;;;8397308;28;19920;-43
2023/04/24 03:15:35;;;;;;;;;;;21.30;37.10;;;;;;8396717;28;19917;-45
2023/04/24 03:19:35;;;;;;;;;;;21.30;37.10;;;;;;8397861;28;19916;-45
2023/04/24 03:23:35;;;;;;;;;;;21.30;37.10;;;;;;8396795;28;20165;-43
2023/04/24 03:27:37;;;;;;;;;;;21.30;37.00;;;;;;8396307;28;19927;-45
2023/04/24 03:31:37;;;;;;;;;;;21.30;37.00;;;;;;8396804;28;19912;-45
2023/04/24 03:35:38;;;;;;;;;;;21.30;36.90;;;;;;8396798;28;19995;-44
2023/04/24 03:39:38;;;;;;;;;;;21.30;37.00;;;;;;8396177;28;19999;-44
2023/04/24 03:43:39;;;;;;;;;;;21.30;36.90;;;;;;8396365;28;19928;-44
2023/04/24 03:47:39;;;;;;;;;;;21.30;37.00;;;;;;8396170;28;19924;-44
2023/04/24 03:51:40;;;;;;;;;;;21.30;36.90;;;;;;8395552;28;20004;-45
2023/04/24 03:55:40;;;;;;;;;;;21.30;36.90;;;;;;8396231;28;19920;-44
2023/04/24 03:59:40;;;;;;;;;;;21.30;37.00;;;;;;8396154;28;19995;-44
2023/04/24 04:03:41;;;;;;;;;;;21.30;36.90;;;;;;8395316;28;19977;-45
2023/04/24 04:07:41;;;;;;;;;;;21.30;36.90;;;;;;8395655;28;19920;-45
2023/04/24 04:11:42;;;;;;;;;;;21.30;36.90;;;;;;8371017;28;20054;-45
2023/04/24 04:15:43;;;;;;;;;;;21.40;36.90;;;;;;8395229;28;20284;-44
2023/04/24 04:19:43;;;;;;;;;;;21.40;36.80;;;;;;8394865;28;20011;-47
2023/04/24 04:23:44;;;;;;;;;;;21.50;36.80;;;;;;8395504;28;20362;-44
2023/04/24 04:27:45;;;;;;;;;;;21.60;36.80;;;;;;8395004;28;19923;-45
2023/04/24 04:31:46;;;;;;;;;;;21.60;36.70;;;;;;8395176;28;20297;-45
2023/04/24 04:35:49;;;;;;;;;;;21.70;36.70;;;;;;8395492;28;19927;-46
2023/04/24 04:39:50;;;;;;;;;;;21.70;36.70;;;;;;8394663;28;20007;-46
2023/04/24 04:43:50;;;;;;;;;;;21.80;36.70;;;;;;8395124;28;19933;-45
2023/04/24 04:47:50;;;;;;;;;;;21.80;36.70;;;;;;8394713;28;19913;-44
2023/04/24 04:51:51;;;;;;;;;;;21.80;36.70;;;;;;8395067;28;20320;-45
2023/04/24 04:55:51;;;;;;;;;;;21.80;36.70;;;;;;8395207;28;19920;-45
2023/04/24 04:59:52;;;;;;;;;;;21.90;36.70;;;;;;8394474;28;19924;-45
2023/04/24 05:03:52;;;;;;;;;;;21.90;36.80;;;;;;8394602;28;19924;-45
2023/04/24 05:07:53;;;;;;;;;;;21.80;36.80;;;;;;8394674;28;19919;-45
2023/04/24 05:11:54;;;;;;;;;;;21.80;36.70;;;;;;8394176;28;19924;-46
2023/04/24 05:15:55;;;;;;;;;;;21.80;36.90;;;;;;8394814;28;19912;-45
2023/04/24 05:19:55;;;;;;;;;;;21.80;36.90;;;;;;8394673;28;20278;-45
2023/04/24 05:23:55;;;;;;;;;;;21.80;37.00;;;;;;8393987;28;19928;-45
2023/04/24 05:27:58;;;;;;;;;;;21.80;36.90;;;;;;8393884;28;21277;-45
2023/04/24 05:31:58;;;;;;;;;;;21.80;37.00;;;;;;8399063;28;19913;-45
2023/04/24 05:35:59;;;;;;;;;;;21.70;37.00;;;;;;8400021;28;19958;-45
2023/04/24 05:39:59;;;;;;;;;;;21.70;37.00;;;;;;8400196;28;20365;-45
2023/04/24 05:44:00;;;;;;;;;;;21.70;37.00;;;;;;8400302;28;19928;-45
2023/04/24 05:48:00;;;;;;;;;;;21.70;37.10;;;;;;8399704;28;20013;-46
2023/04/24 05:52:01;;;;;;;;;;;21.70;37.00;;;;;;8399871;28;19918;-44
2023/04/24 05:56:01;;;;;;;;;;;21.70;37.00;;;;;;8399875;28;20365;-45
2023/04/24 06:00:03;;;;;;;;;;;21.70;37.10;;;;;;8399263;28;19970;-45
2023/04/24 06:04:04;;;;;;;;;;;21.70;37.10;;;;;;8399711;28;20373;-45
2023/04/24 06:08:04;;;;;;;;;;;21.70;37.00;;;;;;8399575;28;19912;-44
2023/04/24 06:12:07;;;;;;;;;;;21.70;37.00;;;;;;8398831;28;19967;-44
2023/04/24 06:16:07;;;;;;;;;;;21.70;37.00;;;;;;8399513;28;20007;-45
2023/04/24 06:20:08;;;;;;;;;;;21.70;37.00;;;;;;8399262;28;19931;-45
2023/04/24 06:24:09;;;;;;;;;;;21.70;37.10;;;;;;8398578;28;20019;-44
2023/04/24 06:28:09;;;;;;;;;;;21.70;37.10;;;;;;8398746;28;20306;-46
2023/04/24 06:32:09;;;;;;;;;;;21.70;37.10;;;;;;8398683;28;19920;-45
2023/04/24 06:36:10;;;;;;;;;;;21.70;37.10;;;;;;8398508;28;19974;-44
2023/04/24 06:40:11;;;;;;;;;;;21.70;37.20;;;;;;8398761;28;19931;-44
2023/04/24 06:44:11;;;;;;;;;;;21.70;37.20;;;;;;8397273;28;19931;-45
2023/04/24 06:48:11;;;;;;;;;;;21.70;37.20;;;;;;8397802;28;19917;-45
2023/04/24 06:52:12;;;;;;;;;;;21.70;37.10;;;;;;8397920;28;20079;-43
2023/04/24 06:56:12;;;;;;;;;;;21.70;37.10;;;;;;8398248;28;20343;-45
2023/04/24 07:00:13;;;;;;;;;;;21.70;37.10;;;;;;8397360;28;19917;-44
2023/04/24 07:04:13;;;;;;;;;;;21.80;37.00;;;;;;8391224;28;19924;-45
2023/04/24 07:08:16;;;;;;;;;;;21.80;37.00;;;;;;8397598;28;19935;-44
2023/04/24 07:12:16;;;;;;;;;;;21.70;37.00;;;;;;8396909;28;19923;-45
2023/04/24 07:16:17;;;;;;;;;;;21.70;37.10;;;;;;8396028;28;19912;-47
2023/04/24 07:20:17;;;;;;;;;;;21.70;37.10;;;;;;8396911;28;19920;-44
2023/04/24 07:24:18;;;;;;;;;;;21.70;37.00;;;;;;8396320;28;19924;-45
2023/04/24 07:28:18;;;;;;;;;;;21.70;37.00;;;;;;8396441;28;19913;-46
2023/04/24 07:32:19;;;;;;;;;;;21.70;37.00;;;;;;8396760;28;19952;-45
2023/04/24 07:36:19;;;;;;;;;;;21.70;37.00;;;;;;8396298;28;19916;-44
2023/04/24 07:40:20;;;;;;;;;;;21.70;37.00;;;;;;8395044;28;20392;-45
2023/04/24 07:44:20;;;;;;;;;;;21.70;37.00;;;;;;8396370;28;19923;-46
2023/04/24 07:48:22;;;;;;;;;;;21.70;37.00;;;;;;8395831;28;19932;-45
2023/04/24 07:52:22;;;;;;;;;;;21.70;37.00;;;;;;8394409;28;19913;-46
2023/04/24 07:56:23;;;;;;;;;;;21.60;36.90;;;;;;8377606;28;19920;-45
2023/04/24 08:00:23;;;;;;;;;;;21.60;36.90;;;;;;8385326;28;19917;-45
2023/04/24 08:04:24;;;;;;;;;;;21.60;36.90;;;;;;8393397;28;19931;-45
2023/04/24 08:08:24;;;;;;;;;;;21.60;36.90;;;;;;8382223;28;20331;-45
2023/04/24 08:12:25;;;;;;;;;;;21.60;36.90;;;;;;8371866;28;20293;-44
2023/04/24 08:16:25;;;;;;;;;;;21.60;36.90;;;;;;8392229;28;19917;-44
2023/04/24 08:20:26;;;;;;;;;;;21.70;36.80;;;;;;8390155;28;19944;-45
2023/04/24 08:24:26;;;;;;;;;;;21.70;36.80;;;;;;8394911;28;19928;-45
2023/04/24 08:28:27;;;;;;;;;;;21.70;36.80;;;;;;8374914;28;20419;-45
2023/04/24 08:32:30;;;;;;;;;;;21.70;36.80;;;;;;8393318;28;19924;-45
2023/04/24 08:36:31;;;;;;;;;;;21.70;36.70;;;;;;8394877;28;19990;-44
2023/04/24 08:40:33;;;;;;;;;;;21.70;36.70;;;;;;8393204;28;19924;-45
2023/04/24 08:44:35;;;;;;;;;;;21.70;36.80;;;;;;8394907;28;19920;-44
2023/04/24 08:48:36;;;;;;;;;;;21.70;36.70;;;;;;8393463;28;20042;-44
2023/04/24 08:52:36;;;;;;;;;;;21.70;36.70;;;;;;8389949;28;19917;-45
2023/04/24 08:56:39;;;;;;;;;;;21.70;36.70;;;;;;8376540;28;19916;-44
2023/04/24 09:00:39;;;;;;;;;;;21.80;36.70;;;;;;8389653;28;20374;-44
2023/04/24 09:04:40;;;;;;;;;;;21.80;36.70;;;;;;8396243;28;19920;-45
2023/04/24 09:08:41;;;;;;;;;;;21.80;36.70;;;;;;8399772;28;19919;-44
2023/04/24 09:12:41;;;;;;;;;;;21.80;36.70;;;;;;8400441;28;20183;-44
2023/04/24 09:16:42;;;;;;;;;;;21.80;36.70;;;;;;8399391;28;19986;-44
2023/04/24 09:21:02;;;;;;;;;;;21.80;36.70;;;;;;8384611;28;19920;-45
2023/04/24 09:25:07;;;;;;;;;;;21.80;36.70;;;;;;8400575;28;19917;-45
2023/04/24 09:29:07;;;;;;;;;;;21.80;36.60;;;;;;8395303;28;20031;-44
2023/04/24 09:33:15;;;;;;;;;;;21.80;36.60;;;;;;8398396;28;20324;-44
2023/04/24 09:37:29;;;;;;;;;;;21.80;36.60;;;;;;8400976;28;19927;-44
2023/04/24 09:41:29;;;;;;;;;;;21.80;36.60;;;;;;8400405;28;20023;-44
2023/04/24 09:45:37;;;;;;;;;;;21.80;36.60;;;;;;8399624;28;20242;-44
2023/04/24 09:49:39;;;;;;;;;;;21.80;36.50;;;;;;8399918;28;19920;-44
2023/04/24 09:53:39;;;;;;;;;;;21.80;36.50;;;;;;8399758;28;19917;-44
2023/04/24 09:57:47;;;;;;;;;;;21.80;36.50;;;;;;8399511;28;19995;-44
2023/04/24 10:01:49;;;;;;;;;;;21.80;36.50;;;;;;8399614;28;19974;-44
2023/04/24 10:05:51;;;;;;;;;;;21.80;36.50;;;;;;8399495;28;19965;-45
2023/04/24 10:09:51;;;;;;;;;;;21.80;36.40;;;;;;8389721;28;19940;-44
2023/04/24 10:13:52;;;;;;;;;;;21.80;36.40;;;;;;8372454;28;20015;-44
2023/04/24 10:17:53;;;;;;;;;;;21.90;36.40;;;;;;8397760;28;20427;-44
2023/04/24 10:21:55;;;;;;;;;;;21.90;36.30;;;;;;8398887;28;19924;-44
2023/04/24 10:25:56;;;;;;;;;;;21.80;36.20;;;;;;8399146;28;19917;-44
2023/04/24 10:29:57;;;;;;;;;;;21.80;36.20;;;;;;8398255;28;19920;-44
2023/04/24 10:33:58;;;;;;;;;;;21.80;36.30;;;;;;8398940;28;19917;-44
2023/04/24 10:38:09;;;;;;;;;;;21.80;36.20;;;;;;8398797;28;19916;-45
2023/04/24 10:42:14;;;;;;;;;;;21.80;36.20;;;;;;8397711;28;19948;-44
2023/04/24 10:46:19;;;;;;;;;;;21.80;36.20;;;;;;8398965;28;19970;-44
2023/04/24 10:50:20;;;;;;;;;;;21.80;36.20;;;;;;8398239;28;20284;-44
2023/04/24 10:54:29;;;;;;;;;;;21.80;36.10;;;;;;8397686;28;19943;-44
2023/04/24 10:58:38;;;;;;;;;;;21.80;36.10;;;;;;8398317;28;19913;-44
2023/04/24 11:02:40;;;;;;;;;;;21.80;36.10;;;;;;8398081;28;19925;-46
2023/04/24 11:06:40;;;;;;;;;;;21.80;36.10;;;;;;8397302;28;19920;-44
2023/04/24 11:10:44;;;;;;;;;;;21.80;36.10;;;;;;8397181;28;20000;-44
2023/04/24 11:14:57;;;;;;;;;;;21.80;36.10;;;;;;8397359;28;19962;-44
2023/04/24 11:19:17;;;;;;;;;;;21.80;36.10;;;;;;8396752;28;19920;-46
2023/04/24 11:23:18;;;;;;;;;;;21.80;36.00;;;;;;8397114;28;20373;-46
2023/04/24 11:27:19;;;;;;;;;;;21.70;36.00;;;;;;8396233;28;19922;-45
2023/04/24 11:31:39;;;;;;;;;;;21.80;36.10;;;;;;8396783;28;19935;-44
2023/04/24 11:35:40;;;;;;;;;;;21.80;36.10;;;;;;8396651;28;20358;-44
2023/04/24 11:39:40;;;;;;;;;;;21.70;36.00;;;;;;8396101;28;20003;-45
2023/04/24 11:43:41;;;;;;;;;;;21.70;36.00;;;;;;8396784;28;19921;-44
2023/04/24 11:47:42;;;;;;;;;;;21.70;36.00;;;;;;8395571;28;19962;-44
2023/04/24 11:51:42;;;;;;;;;;;21.70;36.00;;;;;;8395825;28;20361;-44
2023/04/24 11:55:43;;;;;;;;;;;21.70;36.00;;;;;;8396161;28;19916;-44
2023/04/24 11:59:43;;;;;;;;;;;21.70;35.90;;;;;;8396049;28;19962;-44
2023/04/24 12:03:48;;;;;;;;;;;21.70;35.90;;;;;;8395611;28;20012;-45
2023/04/24 12:07:48;;;;;;;;;;;21.70;35.90;;;;;;8395991;28;20343;-45
2023/04/24 12:11:58;;;;;;;;;;;21.70;35.80;;;;;;8395776;28;19927;-44
2023/04/24 12:15:58;;;;;;;;;;;21.80;35.90;;;;;;8395506;28;19982;-44
2023/04/24 12:19:59;;;;;;;;;;;21.70;35.80;;;;;;8395636;28;19916;-44
2023/04/24 12:24:00;;;;;;;;;;;21.80;35.80;;;;;;8394955;28;19952;-44
2023/04/24 12:28:03;;;;;;;;;;;21.80;35.80;;;;;;8395566;28;19912;-44
2023/04/24 12:32:04;;;;;;;;;;;21.80;35.70;;;;;;8395307;28;19916;-44
2023/04/24 12:36:06;;;;;;;;;;;21.80;35.70;;;;;;8394776;28;20293;-44
2023/04/24 12:40:07;;;;;;;;;;;21.80;35.70;;;;;;8394357;28;19970;-45
2023/04/24 12:44:10;;;;;;;;;;;21.80;35.70;;;;;;8395411;28;19921;-44
2023/04/24 12:48:11;;;;;;;;;;;21.90;35.70;;;;;;8394917;28;19920;-46
2023/04/24 12:52:11;;;;;;;;;;;21.80;35.70;;;;;;8395433;28;19956;-44
2023/04/24 12:56:11;;;;;;;;;;;21.80;35.60;;;;;;8394909;28;19916;-45
2023/04/24 13:00:12;;;;;;;;;;;21.90;35.70;;;;;;8394567;28;20372;-44
2023/04/24 13:04:12;;;;;;;;;;;21.90;35.60;;;;;;8394946;28;19924;-46
2023/04/24 13:08:13;;;;;;;;;;;21.80;35.60;;;;;;8395049;28;19917;-45
2023/04/24 13:12:14;;;;;;;;;;;21.80;35.60;;;;;;8390241;28;20011;-44
2023/04/24 13:16:14;;;;;;;;;;;21.80;35.60;;;;;;8394872;28;19916;-45
2023/04/24 13:20:14;;;;;;;;;;;21.80;35.60;;;;;;8394871;28;19912;-44
2023/04/24 13:24:15;;;;;;;;;;;21.90;35.60;;;;;;8394311;28;19924;-44
2023/04/24 13:28:16;;;;;;;;;;;21.90;35.60;;;;;;8394682;28;19952;-43
2023/04/24 13:32:17;;;;;;;;;;;21.90;35.60;;;;;;8394168;28;19921;-43
2023/04/24 13:36:17;;;;;;;;;;;21.90;35.60;;;;;;8393707;28;19921;-43
2023/04/24 13:40:17;;;;;;;;;;;21.80;35.50;;;;;;8394290;28;20310;-44
2023/04/24 13:44:19;;;;;;;;;;;21.80;35.60;;;;;;8394256;28;20067;-45
2023/04/24 13:48:20;;;;;;;;;;;21.80;35.60;;;;;;8394106;28;19916;-45
2023/04/24 13:52:21;;;;;;;;;;;21.80;35.60;;;;;;8397915;28;20006;-43
2023/04/24 13:56:22;;;;;;;;;;;21.90;35.60;;;;;;8399686;28;19912;-44
2023/04/24 14:00:22;;;;;;;;;;;21.90;35.60;;;;;;8399516;28;19917;-45
2023/04/24 14:04:23;;;;;;;;;;;21.90;35.60;;;;;;8399675;28;20007;-44
2023/04/24 14:08:23;;;;;;;;;;;21.90;35.50;;;;;;8399487;28;19916;-44
2023/04/24 14:12:24;;;;;;;;;;;21.90;35.50;;;;;;8398816;28;19924;-44
2023/04/24 14:16:24;;;;;;;;;;;21.90;35.50;;;;;;8399488;28;19916;-44
2023/04/24 14:20:25;;;;;;;;;;;21.90;35.50;;;;;;8399103;28;20320;-44
2023/04/24 14:24:26;;;;;;;;;;;21.90;35.50;;;;;;8398633;28;19924;-44
2023/04/24 14:28:26;;;;;;;;;;;21.90;35.50;;;;;;8399229;28;20297;-43
2023/04/24 14:32:26;;;;;;;;;;;21.90;35.50;;;;;;8398628;28;19920;-43
2023/04/24 14:36:27;;;;;;;;;;;21.90;35.50;;;;;;8398386;28;19928;-44
2023/04/24 14:40:27;;;;;;;;;;;21.90;35.50;;;;;;8398550;28;19917;-44
2023/04/24 14:44:28;;;;;;;;;;;21.90;35.50;;;;;;8398500;28;20086;-44
2023/04/24 14:48:28;;;;;;;;;;;21.90;35.50;;;;;;8397709;28;19967;-44
2023/04/24 14:52:29;;;;;;;;;;;21.90;35.50;;;;;;8398051;28;19921;-45
2023/04/24 14:56:29;;;;;;;;;;;21.90;35.50;;;;;;8397970;28;19924;-44
2023/04/24 15:00:30;;;;;;;;;;;21.90;35.40;;;;;;8397595;28;19917;-44
2023/04/24 15:04:30;;;;;;;;;;;21.90;35.50;;;;;;8397298;28;19978;-43
2023/04/24 15:08:31;;;;;;;;;;;21.90;35.50;;;;;;8397516;28;19916;-44
2023/04/24 15:12:31;;;;;;;;;;;21.90;35.50;;;;;;8397069;28;20014;-44
2023/04/24 15:16:32;;;;;;;;;;;21.90;35.60;;;;;;8397502;28;19956;-45
2023/04/24 15:20:33;;;;;;;;;;;22.00;35.50;;;;;;8397063;28;19921;-46
2023/04/24 15:24:33;;;;;;;;;;;22.00;35.40;;;;;;8396588;28;19924;-43
2023/04/24 15:28:34;;;;;;;;;;;22.10;35.40;;;;;;8396878;28;19970;-43
2023/04/24 15:32:34;;;;;;;;;;;22.20;35.30;;;;;;8396598;28;20323;-44
2023/04/24 15:36:35;;;;;;;;;;;22.20;35.30;;;;;;8395865;28;19917;-43
2023/04/24 15:40:35;;;;;;;;;;;22.30;35.30;;;;;;8396017;28;19920;-45
2023/04/24 15:44:36;;;;;;;;;;;22.30;35.30;;;;;;8396199;28;19924;-44
2023/04/24 15:48:38;;;;;;;;;;;22.30;35.10;;;;;;8395390;28;19974;-45
2023/04/24 15:52:39;;;;;;;;;;;22.30;35.10;;;;;;8395873;28;19920;-45
2023/04/24 15:56:39;;;;;;;;;;;22.30;35.10;;;;;;8396221;28;19924;-44
2023/04/24 16:00:40;;;;;;;;;;;22.30;35.10;;;;;;8394955;28;19912;-47
2023/04/24 16:04:40;;;;;;;;;;;22.30;35.10;;;;;;8396092;28;19925;-46
2023/04/24 16:08:41;;;;;;;;;;;22.30;35.10;;;;;;8394812;28;19916;-46
2023/04/24 16:12:41;;;;;;;;;;;22.30;35.10;;;;;;8394967;28;19917;-45
2023/04/24 16:16:42;;;;;;;;;;;22.30;35.10;;;;;;8394688;28;19912;-44
2023/04/24 16:20:42;;;;;;;;;;;22.30;35.10;;;;;;8395312;28;20310;-44
2023/04/24 16:24:43;;;;;;;;;;;22.30;35.10;;;;;;8395083;28;20442;-45
2023/04/24 16:28:43;;;;;;;;;;;22.20;35.00;;;;;;8395162;28;19939;-44
2023/04/24 16:32:44;;;;;;;;;;;22.20;35.00;;;;;;8395185;28;20277;-46
2023/04/24 16:36:44;;;;;;;;;;;22.20;35.00;;;;;;8394589;28;19924;-44
2023/04/24 16:40:45;;;;;;;;;;;22.20;35.10;;;;;;8395150;28;19916;-44
2023/04/24 16:44:45;;;;;;;;;;;22.20;35.00;;;;;;8395229;28;19928;-44
2023/04/24 16:48:46;;;;;;;;;;;22.20;35.10;;;;;;8394590;28;19951;-44
2023/04/24 16:52:46;;;;;;;;;;;22.20;35.00;;;;;;8395014;28;19917;-45
2023/04/24 16:56:48;;;;;;;;;;;22.20;35.00;;;;;;8394885;28;19924;-45
2023/04/24 17:00:49;;;;;;;;;;;22.20;35.00;;;;;;8394099;28;19952;-44
2023/04/24 17:04:49;;;;;;;;;;;22.20;35.00;;;;;;8394998;28;19928;-45
2023/04/24 17:08:50;;;;;;;;;;;22.10;35.00;;;;;;8394867;28;20388;-44
2023/04/24 17:12:50;;;;;;;;;;;22.10;35.00;;;;;;8394374;28;20007;-44
2023/04/24 17:16:51;;;;;;;;;;;22.10;35.00;;;;;;8394305;28;19920;-44
2023/04/24 17:20:51;;;;;;;;;;;22.10;35.00;;;;;;8394124;28;19916;-44
2023/04/24 17:24:52;;;;;;;;;;;22.10;35.00;;;;;;8394404;28;19916;-44
2023/04/24 17:28:54;;;;;;;;;;;22.00;35.10;;;;;;8400461;28;19917;-44
2023/04/24 17:32:54;;;;;;;;;;;22.00;35.10;;;;;;8400143;28;20079;-44
2023/04/24 17:36:54;;;;;;;;;;;22.00;35.10;;;;;;8400123;28;19983;-44
2023/04/24 17:40:55;;;;;;;;;;;22.00;35.10;;;;;;8400682;28;19917;-44
2023/04/24 17:44:55;;;;;;;;;;;22.00;35.10;;;;;;8399760;28;19917;-44
2023/04/24 17:48:56;;;;;;;;;;;22.00;35.10;;;;;;8400234;28;19923;-44
2023/04/24 17:52:56;;;;;;;;;;;22.00;35.10;;;;;;8399860;28;19912;-45
2023/04/24 17:56:57;;;;;;;;;;;22.00;35.10;;;;;;8399348;28;19920;-44
2023/04/24 18:00:58;;;;;;;;;;;22.00;35.10;;;;;;8400181;28;20241;-44
2023/04/24 18:04:58;;;;;;;;;;;22.00;35.10;;;;;;8399542;28;19921;-43
2023/04/24 18:08:59;;;;;;;;;;;22.00;35.10;;;;;;8399079;28;19958;-44
2023/04/24 18:13:00;;;;;;;;;;;22.00;35.10;;;;;;8399511;28;19916;-43
2023/04/24 18:17:00;;;;;;;;;;;22.00;35.10;;;;;;8399566;28;19920;-43
2023/04/24 18:21:01;;;;;;;;;;;22.00;35.00;;;;;;8398832;28;20458;-44
2023/04/24 18:25:01;;;;;;;;;;;22.00;35.10;;;;;;8398960;28;19939;-45
2023/04/24 18:29:02;;;;;;;;;;;22.00;35.00;;;;;;8399107;28;19916;-44
2023/04/24 18:33:03;;;;;;;;;;;22.00;35.00;;;;;;8398273;28;19917;-44
2023/04/24 18:37:03;;;;;;;;;;;21.90;35.00;;;;;;8397541;28;19940;-44
2023/04/24 18:41:03;;;;;;;;;;;22.00;35.10;;;;;;8398995;28;19921;-43
2023/04/24 18:45:04;;;;;;;;;;;21.90;35.00;;;;;;8398153;28;19958;-44
2023/04/24 18:49:05;;;;;;;;;;;21.90;35.00;;;;;;8398187;28;19938;-43
2023/04/24 18:53:07;;;;;;;;;;;21.90;35.00;;;;;;8398126;28;19996;-43
2023/04/24 18:57:08;;;;;;;;;;;21.90;35.00;;;;;;8397654;28;19920;-43
2023/04/24 19:01:09;;;;;;;;;;;21.90;35.00;;;;;;8397970;28;19916;-43
2023/04/24 19:05:10;;;;;;;;;;;21.90;35.00;;;;;;8396614;28;19966;-43
2023/04/24 19:09:11;;;;;;;;;;;21.90;35.00;;;;;;8397186;28;20332;-42
2023/04/24 19:13:11;;;;;;;;;;;21.90;35.00;;;;;;8397570;28;19920;-43
2023/04/24 19:17:12;;;;;;;;;;;21.90;35.00;;;;;;8397323;28;19913;-43
2023/04/24 19:21:13;;;;;;;;;;;21.90;35.10;;;;;;8396759;28;19930;-43
2023/04/24 19:25:13;;;;;;;;;;;21.80;35.00;;;;;;8397308;28;19917;-42
2023/04/24 19:29:14;;;;;;;;;;;21.80;35.00;;;;;;8396987;28;20324;-43
2023/04/24 19:33:15;;;;;;;;;;;21.80;35.10;;;;;;8395189;28;19916;-44
2023/04/24 19:37:16;;;;;;;;;;;21.80;35.10;;;;;;8397129;28;19924;-43
2023/04/24 19:41:16;;;;;;;;;;;21.80;35.10;;;;;;8397004;28;20391;-43
2023/04/24 19:45:17;;;;;;;;;;;21.80;35.10;;;;;;8396129;28;20234;-43
2023/04/24 19:49:17;;;;;;;;;;;21.80;35.10;;;;;;8396089;28;19928;-42
2023/04/24 19:53:17;;;;;;;;;;;21.80;35.10;;;;;;8396445;28;19944;-43
2023/04/24 19:57:18;;;;;;;;;;;21.80;35.10;;;;;;8395800;28;19925;-44
2023/04/24 20:01:18;;;;;;;;;;;21.80;35.10;;;;;;8396526;28;19935;-43
2023/04/24 20:05:19;;;;;;;;;;;21.80;35.10;;;;;;8395859;28;19920;-43
2023/04/24 20:09:19;;;;;;;;;;;21.80;35.10;;;;;;8395561;28;19924;-43
2023/04/24 20:13:20;;;;;;;;;;;21.80;35.10;;;;;;8395833;28;19936;-41
2023/04/24 20:17:20;;;;;;;;;;;21.80;35.10;;;;;;8395694;28;19916;-42
2023/04/24 20:21:21;;;;;;;;;;;21.80;35.10;;;;;;8395359;28;19928;-44
2023/04/24 20:25:21;;;;;;;;;;;21.80;35.00;;;;;;8395806;28;20392;-43
2023/04/24 20:29:22;;;;;;;;;;;21.80;35.10;;;;;;8395704;28;19957;-43
2023/04/24 20:33:22;;;;;;;;;;;21.80;35.00;;;;;;8394965;28;20270;-42
2023/04/24 20:37:23;;;;;;;;;;;21.80;35.10;;;;;;8395564;28;19912;-42
2023/04/24 20:41:24;;;;;;;;;;;21.70;35.00;;;;;;8395459;28;20285;-45
2023/04/24 20:45:24;;;;;;;;;;;21.70;35.10;;;;;;8394829;28;19924;-43
2023/04/24 20:49:25;;;;;;;;;;;21.70;35.10;;;;;;8395274;28;20361;-43
2023/04/24 20:53:25;;;;;;;;;;;21.70;35.10;;;;;;8395211;28;19912;-43
2023/04/24 20:57:26;;;;;;;;;;;21.70;35.10;;;;;;8394696;28;19916;-43
2023/04/24 21:01:28;;;;;;;;;;;21.70;35.10;;;;;;8397750;28;19962;-43
2023/04/24 21:05:29;;;;;;;;;;;21.70;35.10;;;;;;8401682;28;19921;-43
2023/04/24 21:09:29;;;;;;;;;;;21.70;35.10;;;;;;8401055;28;20366;-43
2023/04/24 21:13:30;;;;;;;;;;;21.70;35.10;;;;;;8401244;28;19912;-44
2023/04/24 21:17:30;;;;;;;;;;;21.70;35.10;;;;;;8401747;28;19923;-42
2023/04/24 21:21:32;;;;;;;;;;;21.70;35.10;;;;;;8400941;28;19932;-44
2023/04/24 21:25:33;;;;;;;;;;;21.70;35.10;;;;;;8401629;28;19917;-43
2023/04/24 21:29:34;;;;;;;;;;;21.70;35.10;;;;;;8401109;28;20293;-44
2023/04/24 21:33:35;;;;;;;;;;;21.70;35.20;;;;;;8400203;28;19923;-42
2023/04/24 21:37:36;;;;;;;;;;;21.60;35.20;;;;;;8400847;28;19913;-43
2023/04/24 21:41:37;;;;;;;;;;;21.60;35.20;;;;;;8400374;28;19932;-43
2023/04/24 21:45:37;;;;;;;;;;;21.60;35.20;;;;;;8399822;28;19920;-43
2023/04/24 21:49:38;;;;;;;;;;;21.60;35.20;;;;;;8400198;28;19917;-43
2023/04/24 21:53:38;;;;;;;;;;;21.60;35.20;;;;;;8400175;28;19912;-42
2023/04/24 21:57:38;;;;;;;;;;;21.60;35.20;;;;;;8399648;28;19921;-44
2023/04/24 22:01:39;;;;;;;;;;;21.60;35.20;;;;;;8398933;28;20285;-42
2023/04/24 22:05:40;;;;;;;;;;;21.50;35.20;;;;;;8399621;28;19924;-43
2023/04/24 22:09:40;;;;;;;;;;;21.50;35.20;;;;;;8398061;28;19927;-43
2023/04/24 22:13:40;;;;;;;;;;;21.50;35.20;;;;;;8399541;28;19916;-43
2023/04/24 22:17:42;;;;;;;;;;;21.50;35.20;;;;;;8399675;28;19924;-43
2023/04/24 22:21:42;;;;;;;;;;;21.50;35.20;;;;;;8398776;28;19925;-42
2023/04/24 22:25:43;;;;;;;;;;;21.50;35.20;;;;;;8399001;28;20000;-42
2023/04/24 22:29:43;;;;;;;;;;;21.40;35.20;;;;;;8399030;28;19912;-42
2023/04/24 22:33:45;;;;;;;;;;;21.40;35.20;;;;;;8398517;28;19967;-42
2023/04/24 22:37:47;;;;;;;;;;;21.40;35.30;;;;;;8398842;28;19913;-43
2023/04/24 22:41:48;;;;;;;;;;;21.40;35.20;;;;;;8398687;28;20336;-42
2023/04/24 22:45:48;;;;;;;;;;;21.40;35.30;;;;;;8397984;28;19916;-42
2023/04/24 22:49:52;;;;;;;;;;;21.30;35.20;;;;;;8398417;28;19918;-43
2023/04/24 22:53:53;;;;;;;;;;;21.30;35.20;;;;;;8397895;28;19919;-42
2023/04/24 22:57:56;;;;;;;;;;;21.30;35.20;;;;;;8398664;28;19990;-42
2023/04/24 23:01:58;;;;;;;;;;;21.30;35.30;;;;;;8398007;28;20369;-42
2023/04/24 23:05:58;;;;;;;;;;;21.30;35.30;;;;;;8397300;28;19929;-42
2023/04/24 23:09:58;;;;;;;;;;;21.30;35.30;;;;;;8397612;28;20365;-43
2023/04/24 23:13:59;;;;;;;;;;;21.30;35.30;;;;;;8397816;28;19917;-44
2023/04/24 23:17:59;;;;;;;;;;;21.30;35.30;;;;;;8397366;28;20380;-43
2023/04/24 23:22:00;;;;;;;;;;;21.20;35.30;;;;;;8397093;28;19931;-43